CHX76 EDDG-EDDG
Flight info
| Callsign | CHX76 |
|---|---|
| Flight time | 1h 32m |
| Altitude | 1500 |
| Route | VFR RESCUE MISSION FROM GREVEN |
| Aircraft | EC45/L-FRV/S |
Departure
| Time | 2026-05-08 20:30 |
|---|---|
| Airport | Münster Osnabrück Airport (EDDG) |
Arrival
| Time | 2026-05-08 22:03 |
|---|---|
| Airport | Münster Osnabrück Airport (EDDG) |
| Time | Latitude | Longitude | Altitude | Speed | Heading |
|---|---|---|---|---|---|
| 2026-05-08 20:21 | 52.12360 | 7.69013 | 160 ft | 0 kts | 252° |
| 2026-05-08 20:29 | 52.12360 | 7.69012 | 164 ft | 1 kts | 253° |
| 2026-05-08 20:29 | 52.12328 | 7.69010 | 181 ft | 5 kts | 92° |
| 2026-05-08 20:29 | 52.12312 | 7.68923 | 317 ft | 16 kts | 85° |
| 2026-05-08 20:30 | 52.12290 | 7.69018 | 491 ft | 42 kts | 86° |
| 2026-05-08 20:30 | 52.12318 | 7.69799 | 613 ft | 87 kts | 86° |
| 2026-05-08 20:30 | 52.12360 | 7.70930 | 717 ft | 111 kts | 83° |
| 2026-05-08 20:30 | 52.12392 | 7.72251 | 805 ft | 121 kts | 89° |
| 2026-05-08 20:31 | 52.12423 | 7.73634 | 906 ft | 123 kts | 86° |
| 2026-05-08 20:31 | 52.12448 | 7.75035 | 1023 ft | 125 kts | 87° |
| 2026-05-08 20:31 | 52.12472 | 7.76444 | 1122 ft | 126 kts | 87° |
| 2026-05-08 20:31 | 52.12494 | 7.77880 | 1223 ft | 126 kts | 87° |
| 2026-05-08 20:32 | 52.12514 | 7.79308 | 1324 ft | 126 kts | 87° |
| 2026-05-08 20:32 | 52.12533 | 7.80734 | 1388 ft | 129 kts | 87° |
| 2026-05-08 20:32 | 52.12551 | 7.82221 | 1396 ft | 133 kts | 87° |
| 2026-05-08 20:32 | 52.12538 | 7.83739 | 1399 ft | 135 kts | 89° |
| 2026-05-08 20:33 | 52.12523 | 7.85276 | 1400 ft | 135 kts | 89° |
| 2026-05-08 20:33 | 52.12500 | 7.86785 | 1393 ft | 131 kts | 88° |
| 2026-05-08 20:33 | 52.12484 | 7.88253 | 1400 ft | 127 kts | 88° |
| 2026-05-08 20:33 | 52.12471 | 7.89672 | 1401 ft | 126 kts | 88° |
| 2026-05-08 20:34 | 52.12463 | 7.91111 | 1400 ft | 126 kts | 87° |
| 2026-05-08 20:34 | 52.12458 | 7.92536 | 1400 ft | 125 kts | 87° |
| 2026-05-08 20:34 | 52.12460 | 7.95368 | 1400 ft | 125 kts | 86° |
| 2026-05-08 20:35 | 52.12464 | 7.96791 | 1400 ft | 125 kts | 86° |
| 2026-05-08 20:35 | 52.12468 | 7.98211 | 1400 ft | 125 kts | 86° |
| 2026-05-08 20:35 | 52.12474 | 7.99632 | 1400 ft | 125 kts | 86° |
| 2026-05-08 20:35 | 52.12479 | 8.01058 | 1400 ft | 125 kts | 86° |
| 2026-05-08 20:36 | 52.12484 | 8.02481 | 1400 ft | 125 kts | 86° |
| 2026-05-08 20:36 | 52.12489 | 8.03893 | 1400 ft | 125 kts | 86° |
| 2026-05-08 20:36 | 52.12494 | 8.05310 | 1400 ft | 125 kts | 86° |
| 2026-05-08 20:36 | 52.12499 | 8.06733 | 1400 ft | 125 kts | 86° |
| 2026-05-08 20:37 | 52.12503 | 8.08151 | 1400 ft | 125 kts | 86° |
| 2026-05-08 20:37 | 52.12508 | 8.09586 | 1400 ft | 125 kts | 86° |
| 2026-05-08 20:37 | 52.12512 | 8.10996 | 1400 ft | 125 kts | 86° |
| 2026-05-08 20:37 | 52.12516 | 8.12421 | 1400 ft | 125 kts | 86° |
| 2026-05-08 20:38 | 52.12520 | 8.13848 | 1401 ft | 126 kts | 86° |
| 2026-05-08 20:38 | 52.12524 | 8.15271 | 1401 ft | 126 kts | 86° |
| 2026-05-08 20:38 | 52.12528 | 8.16694 | 1400 ft | 126 kts | 86° |
| 2026-05-08 20:38 | 52.12531 | 8.18107 | 1400 ft | 125 kts | 86° |
| 2026-05-08 20:39 | 52.12534 | 8.19534 | 1400 ft | 125 kts | 86° |
| 2026-05-08 20:39 | 52.12537 | 8.20954 | 1398 ft | 125 kts | 86° |
| 2026-05-08 20:39 | 52.12540 | 8.22361 | 1396 ft | 124 kts | 86° |
| 2026-05-08 20:39 | 52.12542 | 8.23756 | 1390 ft | 123 kts | 86° |
| 2026-05-08 20:40 | 52.12544 | 8.25159 | 1403 ft | 123 kts | 86° |
| 2026-05-08 20:40 | 52.12545 | 8.26557 | 1405 ft | 124 kts | 86° |
| 2026-05-08 20:40 | 52.12548 | 8.27966 | 1404 ft | 124 kts | 86° |
| 2026-05-08 20:40 | 52.12552 | 8.29360 | 1399 ft | 123 kts | 86° |
| 2026-05-08 20:41 | 52.12555 | 8.30744 | 1401 ft | 122 kts | 86° |
| 2026-05-08 20:41 | 52.12557 | 8.32141 | 1402 ft | 122 kts | 86° |
| 2026-05-08 20:41 | 52.12558 | 8.33519 | 1400 ft | 122 kts | 86° |
| 2026-05-08 20:41 | 52.12560 | 8.34886 | 1399 ft | 121 kts | 86° |
| 2026-05-08 20:42 | 52.12562 | 8.36264 | 1400 ft | 120 kts | 88° |
| 2026-05-08 20:42 | 52.12563 | 8.37612 | 1400 ft | 120 kts | 88° |
| 2026-05-08 20:42 | 52.12563 | 8.38985 | 1400 ft | 119 kts | 88° |
| 2026-05-08 20:42 | 52.12563 | 8.40321 | 1400 ft | 119 kts | 88° |
| 2026-05-08 20:43 | 52.12562 | 8.41684 | 1398 ft | 119 kts | 88° |
| 2026-05-08 20:43 | 52.12561 | 8.43036 | 1399 ft | 119 kts | 88° |
| 2026-05-08 20:43 | 52.12561 | 8.44377 | 1402 ft | 119 kts | 88° |
| 2026-05-08 20:43 | 52.12560 | 8.45730 | 1404 ft | 119 kts | 88° |
| 2026-05-08 20:44 | 52.12559 | 8.47059 | 1406 ft | 119 kts | 88° |
| 2026-05-08 20:44 | 52.12558 | 8.48410 | 1405 ft | 119 kts | 88° |
| 2026-05-08 20:44 | 52.12562 | 8.49750 | 1409 ft | 118 kts | 86° |
| 2026-05-08 20:44 | 52.12600 | 8.51094 | 1407 ft | 119 kts | 85° |
| 2026-05-08 20:45 | 52.12638 | 8.52479 | 1327 ft | 124 kts | 85° |
| 2026-05-08 20:45 | 52.12673 | 8.53905 | 1250 ft | 126 kts | 85° |
| 2026-05-08 20:45 | 52.12691 | 8.55330 | 1176 ft | 127 kts | 85° |
| 2026-05-08 20:45 | 52.12711 | 8.56786 | 1101 ft | 128 kts | 85° |
| 2026-05-08 20:46 | 52.12730 | 8.58229 | 1033 ft | 127 kts | 85° |
| 2026-05-08 20:46 | 52.12749 | 8.59661 | 1020 ft | 125 kts | 85° |
| 2026-05-08 20:46 | 52.12766 | 8.61056 | 1018 ft | 123 kts | 85° |
| 2026-05-08 20:46 | 52.12784 | 8.62441 | 1008 ft | 119 kts | 83° |
| 2026-05-08 20:47 | 52.12746 | 8.63766 | 1024 ft | 116 kts | 95° |
| 2026-05-08 20:47 | 52.12555 | 8.65010 | 1035 ft | 114 kts | 101° |
| 2026-05-08 20:47 | 52.12396 | 8.66220 | 931 ft | 107 kts | 95° |
| 2026-05-08 20:47 | 52.12250 | 8.67405 | 878 ft | 101 kts | 98° |
| 2026-05-08 20:48 | 52.12106 | 8.68470 | 780 ft | 92 kts | 94° |
| 2026-05-08 20:48 | 52.12064 | 8.69365 | 721 ft | 61 kts | 58° |
| 2026-05-08 20:48 | 52.12275 | 8.69738 | 625 ft | 40 kts | 11° |
| 2026-05-08 20:48 | 52.12482 | 8.69811 | 552 ft | 18 kts | 355° |
| 2026-05-08 20:49 | 52.12552 | 8.69811 | 449 ft | 5 kts | 352° |
| 2026-05-08 20:49 | 52.12576 | 8.69810 | 368 ft | 3 kts | 351° |
| 2026-05-08 20:49 | 52.12585 | 8.69809 | 333 ft | 0 kts | 354° |
| 2026-05-08 20:49 | 52.12586 | 8.69809 | 331 ft | 0 kts | 351° |
| 2026-05-08 21:00 | 52.12581 | 8.69811 | 360 ft | 6 kts | 354° |
| 2026-05-08 21:01 | 52.12585 | 8.69813 | 553 ft | 18 kts | 355° |
| 2026-05-08 21:01 | 52.12869 | 8.69958 | 721 ft | 71 kts | 48° |
| 2026-05-08 21:01 | 52.12801 | 8.70892 | 849 ft | 103 kts | 130° |
| 2026-05-08 21:01 | 52.12138 | 8.71189 | 1154 ft | 106 kts | 189° |
| 2026-05-08 21:02 | 52.11571 | 8.70452 | 1406 ft | 112 kts | 237° |
| 2026-05-08 21:02 | 52.11148 | 8.69248 | 1428 ft | 131 kts | 245° |
| 2026-05-08 21:02 | 52.10801 | 8.67824 | 1425 ft | 139 kts | 249° |
| 2026-05-08 21:02 | 52.10322 | 8.66445 | 1412 ft | 143 kts | 239° |
| 2026-05-08 21:03 | 52.09810 | 8.65044 | 1417 ft | 143 kts | 239° |
| 2026-05-08 21:03 | 52.09302 | 8.63655 | 1417 ft | 144 kts | 239° |
| 2026-05-08 21:03 | 52.08790 | 8.62249 | 1416 ft | 144 kts | 239° |
| 2026-05-08 21:03 | 52.08274 | 8.60825 | 1415 ft | 145 kts | 239° |
| 2026-05-08 21:04 | 52.07782 | 8.59409 | 1413 ft | 145 kts | 239° |
| 2026-05-08 21:04 | 52.07235 | 8.58036 | 1412 ft | 144 kts | 231° |
| 2026-05-08 21:04 | 52.06630 | 8.56772 | 1395 ft | 138 kts | 229° |
| 2026-05-08 21:04 | 52.06062 | 8.55558 | 1407 ft | 133 kts | 230° |
| 2026-05-08 21:05 | 52.05507 | 8.54346 | 1407 ft | 132 kts | 230° |
| 2026-05-08 21:05 | 52.04964 | 8.53154 | 1435 ft | 128 kts | 230° |
| 2026-05-08 21:05 | 52.04455 | 8.52026 | 1572 ft | 121 kts | 230° |
| 2026-05-08 21:05 | 52.03973 | 8.50939 | 1701 ft | 118 kts | 230° |
| 2026-05-08 21:06 | 52.03493 | 8.49860 | 1787 ft | 120 kts | 230° |
| 2026-05-08 21:06 | 52.02985 | 8.48748 | 1799 ft | 125 kts | 229° |
| 2026-05-08 21:06 | 52.02450 | 8.47612 | 1801 ft | 128 kts | 228° |
| 2026-05-08 21:06 | 52.01901 | 8.46465 | 1801 ft | 129 kts | 227° |
| 2026-05-08 21:07 | 52.01348 | 8.45314 | 1799 ft | 129 kts | 227° |
| 2026-05-08 21:07 | 52.00794 | 8.44157 | 1800 ft | 129 kts | 227° |
| 2026-05-08 21:07 | 52.00241 | 8.42999 | 1800 ft | 130 kts | 228° |
| 2026-05-08 21:07 | 51.99687 | 8.41834 | 1800 ft | 130 kts | 228° |
| 2026-05-08 21:08 | 51.99137 | 8.40675 | 1800 ft | 130 kts | 228° |
| 2026-05-08 21:08 | 51.98588 | 8.39514 | 1800 ft | 130 kts | 228° |
| 2026-05-08 21:08 | 51.98044 | 8.38363 | 1801 ft | 130 kts | 228° |
| 2026-05-08 21:08 | 51.97489 | 8.37189 | 1802 ft | 130 kts | 228° |
| 2026-05-08 21:09 | 51.96943 | 8.36032 | 1803 ft | 130 kts | 228° |
| 2026-05-08 21:09 | 51.96388 | 8.34858 | 1804 ft | 130 kts | 227° |
| 2026-05-08 21:09 | 51.95838 | 8.33695 | 1804 ft | 130 kts | 227° |
| 2026-05-08 21:09 | 51.95286 | 8.32526 | 1805 ft | 130 kts | 228° |
| 2026-05-08 21:10 | 51.94741 | 8.31376 | 1805 ft | 130 kts | 228° |
| 2026-05-08 21:10 | 51.94190 | 8.30211 | 1806 ft | 130 kts | 228° |
| 2026-05-08 21:10 | 51.93639 | 8.29046 | 1806 ft | 130 kts | 228° |
| 2026-05-08 21:10 | 51.93089 | 8.27885 | 1807 ft | 130 kts | 228° |
| 2026-05-08 21:11 | 51.92539 | 8.26725 | 1807 ft | 130 kts | 228° |
| 2026-05-08 21:11 | 51.91988 | 8.25564 | 1807 ft | 130 kts | 228° |
| 2026-05-08 21:11 | 51.91435 | 8.24397 | 1807 ft | 130 kts | 228° |
| 2026-05-08 21:11 | 51.90881 | 8.23231 | 1808 ft | 130 kts | 228° |
| 2026-05-08 21:12 | 51.90328 | 8.22067 | 1807 ft | 130 kts | 228° |
| 2026-05-08 21:12 | 51.89780 | 8.20914 | 1807 ft | 130 kts | 228° |
| 2026-05-08 21:12 | 51.89226 | 8.19748 | 1807 ft | 130 kts | 228° |
| 2026-05-08 21:12 | 51.88674 | 8.18587 | 1807 ft | 130 kts | 228° |
| 2026-05-08 21:13 | 51.88117 | 8.17417 | 1807 ft | 130 kts | 228° |
| 2026-05-08 21:13 | 51.87561 | 8.16249 | 1806 ft | 130 kts | 228° |
| 2026-05-08 21:13 | 51.87014 | 8.15101 | 1806 ft | 130 kts | 228° |
| 2026-05-08 21:13 | 51.86454 | 8.13926 | 1805 ft | 129 kts | 227° |
| 2026-05-08 21:14 | 51.85911 | 8.12790 | 1806 ft | 128 kts | 227° |
| 2026-05-08 21:14 | 51.85366 | 8.11649 | 1807 ft | 128 kts | 227° |
| 2026-05-08 21:14 | 51.84825 | 8.10514 | 1807 ft | 128 kts | 227° |
| 2026-05-08 21:14 | 51.84283 | 8.09376 | 1808 ft | 128 kts | 227° |
| 2026-05-08 21:15 | 51.83741 | 8.08239 | 1808 ft | 128 kts | 227° |
| 2026-05-08 21:15 | 51.83196 | 8.07097 | 1809 ft | 128 kts | 228° |
| 2026-05-08 21:15 | 51.82655 | 8.05964 | 1810 ft | 128 kts | 228° |
| 2026-05-08 21:15 | 51.82106 | 8.04814 | 1811 ft | 128 kts | 228° |
| 2026-05-08 21:16 | 51.81561 | 8.03676 | 1811 ft | 128 kts | 228° |
| 2026-05-08 21:16 | 51.81015 | 8.02534 | 1812 ft | 129 kts | 228° |
| 2026-05-08 21:16 | 51.80466 | 8.01388 | 1812 ft | 129 kts | 228° |
| 2026-05-08 21:16 | 51.79911 | 8.00230 | 1813 ft | 129 kts | 228° |
| 2026-05-08 21:17 | 51.79360 | 7.99079 | 1813 ft | 130 kts | 228° |
| 2026-05-08 21:17 | 51.78807 | 7.97927 | 1814 ft | 130 kts | 228° |
| 2026-05-08 21:17 | 51.78255 | 7.96776 | 1813 ft | 131 kts | 231° |
| 2026-05-08 21:17 | 51.77695 | 7.95608 | 1813 ft | 131 kts | 231° |
| 2026-05-08 21:18 | 51.77130 | 7.94430 | 1813 ft | 132 kts | 231° |
| 2026-05-08 21:18 | 51.76568 | 7.93260 | 1813 ft | 132 kts | 231° |
| 2026-05-08 21:18 | 51.76012 | 7.92105 | 1813 ft | 132 kts | 231° |
| 2026-05-08 21:18 | 51.75448 | 7.90932 | 1813 ft | 132 kts | 231° |
| 2026-05-08 21:19 | 51.74883 | 7.89758 | 1812 ft | 132 kts | 231° |
| 2026-05-08 21:19 | 51.74321 | 7.88589 | 1811 ft | 132 kts | 231° |
| 2026-05-08 21:19 | 51.73759 | 7.87423 | 1810 ft | 132 kts | 231° |
| 2026-05-08 21:19 | 51.73199 | 7.86260 | 1809 ft | 132 kts | 231° |
| 2026-05-08 21:20 | 51.72632 | 7.85084 | 1808 ft | 132 kts | 231° |
| 2026-05-08 21:20 | 51.72073 | 7.83924 | 1807 ft | 132 kts | 231° |
| 2026-05-08 21:20 | 51.71509 | 7.82755 | 1806 ft | 132 kts | 231° |
| 2026-05-08 21:20 | 51.70939 | 7.81574 | 1805 ft | 132 kts | 231° |
| 2026-05-08 21:21 | 51.70382 | 7.80420 | 1804 ft | 132 kts | 231° |
| 2026-05-08 21:21 | 51.69817 | 7.79250 | 1803 ft | 132 kts | 231° |
| 2026-05-08 21:21 | 51.69247 | 7.78069 | 1802 ft | 132 kts | 231° |
| 2026-05-08 21:21 | 51.68683 | 7.76903 | 1801 ft | 132 kts | 231° |
| 2026-05-08 21:22 | 51.68117 | 7.75733 | 1800 ft | 132 kts | 231° |
| 2026-05-08 21:22 | 51.67556 | 7.74572 | 1800 ft | 132 kts | 231° |
| 2026-05-08 21:22 | 51.66990 | 7.73404 | 1796 ft | 133 kts | 231° |
| 2026-05-08 21:22 | 51.66402 | 7.72194 | 1665 ft | 140 kts | 231° |
| 2026-05-08 21:23 | 51.65793 | 7.70961 | 1539 ft | 142 kts | 230° |
| 2026-05-08 21:23 | 51.65178 | 7.69723 | 1414 ft | 143 kts | 230° |
| 2026-05-08 21:23 | 51.64558 | 7.68473 | 1289 ft | 143 kts | 230° |
| 2026-05-08 21:23 | 51.63932 | 7.67207 | 1163 ft | 143 kts | 230° |
| 2026-05-08 21:24 | 51.63319 | 7.65958 | 1041 ft | 143 kts | 230° |
| 2026-05-08 21:24 | 51.62713 | 7.64717 | 1008 ft | 137 kts | 231° |
| 2026-05-08 21:24 | 51.62136 | 7.63516 | 1002 ft | 134 kts | 231° |
| 2026-05-08 21:24 | 51.61574 | 7.62335 | 1002 ft | 133 kts | 231° |
| 2026-05-08 21:25 | 51.61012 | 7.61154 | 999 ft | 132 kts | 231° |
| 2026-05-08 21:25 | 51.60451 | 7.59978 | 1000 ft | 132 kts | 231° |
| 2026-05-08 21:25 | 51.59893 | 7.58814 | 1000 ft | 132 kts | 231° |
| 2026-05-08 21:25 | 51.59323 | 7.57632 | 1000 ft | 132 kts | 231° |
| 2026-05-08 21:26 | 51.58764 | 7.56478 | 1000 ft | 132 kts | 231° |
| 2026-05-08 21:26 | 51.58193 | 7.55300 | 1000 ft | 132 kts | 231° |
| 2026-05-08 21:26 | 51.57628 | 7.54141 | 1001 ft | 132 kts | 231° |
| 2026-05-08 21:26 | 51.57066 | 7.52987 | 999 ft | 132 kts | 231° |
| 2026-05-08 21:27 | 51.56473 | 7.51847 | 1002 ft | 132 kts | 224° |
| 2026-05-08 21:27 | 51.55801 | 7.50829 | 1001 ft | 132 kts | 220° |
| 2026-05-08 21:27 | 51.55119 | 7.49843 | 1000 ft | 132 kts | 220° |
| 2026-05-08 21:27 | 51.54461 | 7.48871 | 977 ft | 120 kts | 217° |
| 2026-05-08 21:28 | 51.53888 | 7.48031 | 996 ft | 106 kts | 219° |
| 2026-05-08 21:28 | 51.53354 | 7.47225 | 961 ft | 108 kts | 224° |
| 2026-05-08 21:28 | 51.52839 | 7.46347 | 895 ft | 106 kts | 226° |
| 2026-05-08 21:28 | 51.52370 | 7.45439 | 817 ft | 100 kts | 260° |
| 2026-05-08 21:29 | 51.52666 | 7.44889 | 680 ft | 66 kts | 7° |
| 2026-05-08 21:29 | 51.53061 | 7.45046 | 601 ft | 46 kts | 31° |
| 2026-05-08 21:29 | 51.53234 | 7.45305 | 457 ft | 25 kts | 43° |
| 2026-05-08 21:29 | 51.53305 | 7.45456 | 308 ft | 8 kts | 37° |
| 2026-05-08 21:30 | 51.53328 | 7.45482 | 243 ft | 0 kts | 38° |
| 2026-05-08 21:30 | 51.53329 | 7.45481 | 241 ft | 0 kts | 33° |
| 2026-05-08 21:45 | 51.53309 | 7.45469 | 343 ft | 10 kts | 34° |
| 2026-05-08 21:45 | 51.53279 | 7.45454 | 559 ft | 21 kts | 27° |
| 2026-05-08 21:45 | 51.53663 | 7.45615 | 693 ft | 89 kts | 12° |
| 2026-05-08 21:46 | 51.54372 | 7.45848 | 801 ft | 115 kts | 11° |
| 2026-05-08 21:46 | 51.55188 | 7.46011 | 929 ft | 125 kts | 2° |
| 2026-05-08 21:46 | 51.56051 | 7.46070 | 1106 ft | 123 kts | 6° |
| 2026-05-08 21:46 | 51.56911 | 7.46310 | 1194 ft | 126 kts | 6° |
| 2026-05-08 21:47 | 51.57758 | 7.46601 | 1317 ft | 125 kts | 8° |
| 2026-05-08 21:47 | 51.58611 | 7.46919 | 1342 ft | 125 kts | 8° |
| 2026-05-08 21:47 | 51.59447 | 7.47215 | 1392 ft | 123 kts | 15° |
| 2026-05-08 21:47 | 51.60276 | 7.47555 | 1397 ft | 125 kts | 15° |
| 2026-05-08 21:48 | 51.61120 | 7.47905 | 1399 ft | 126 kts | 15° |
| 2026-05-08 21:48 | 51.61970 | 7.48241 | 1399 ft | 126 kts | 13° |
| 2026-05-08 21:48 | 51.62830 | 7.48559 | 1399 ft | 126 kts | 13° |
| 2026-05-08 21:48 | 51.63693 | 7.48873 | 1399 ft | 126 kts | 13° |
| 2026-05-08 21:49 | 51.64538 | 7.49168 | 1399 ft | 125 kts | 12° |
| 2026-05-08 21:49 | 51.65400 | 7.49488 | 1398 ft | 126 kts | 14° |
| 2026-05-08 21:49 | 51.66249 | 7.49826 | 1398 ft | 126 kts | 14° |
| 2026-05-08 21:49 | 51.67099 | 7.50166 | 1398 ft | 126 kts | 14° |
| 2026-05-08 21:50 | 51.67956 | 7.50506 | 1399 ft | 126 kts | 14° |
| 2026-05-08 21:50 | 51.68812 | 7.50843 | 1399 ft | 126 kts | 14° |
| 2026-05-08 21:50 | 51.69661 | 7.51176 | 1399 ft | 126 kts | 14° |
| 2026-05-08 21:50 | 51.70517 | 7.51510 | 1400 ft | 126 kts | 14° |
| 2026-05-08 21:51 | 51.71372 | 7.51844 | 1400 ft | 126 kts | 14° |
| 2026-05-08 21:51 | 51.72229 | 7.52179 | 1401 ft | 126 kts | 14° |
| 2026-05-08 21:51 | 51.73075 | 7.52509 | 1401 ft | 126 kts | 14° |
| 2026-05-08 21:51 | 51.73938 | 7.52846 | 1402 ft | 126 kts | 14° |
| 2026-05-08 21:52 | 51.74789 | 7.53179 | 1403 ft | 126 kts | 13° |
| 2026-05-08 21:52 | 51.75645 | 7.53514 | 1404 ft | 126 kts | 14° |
| 2026-05-08 21:52 | 51.76492 | 7.53846 | 1405 ft | 126 kts | 14° |
| 2026-05-08 21:52 | 51.77352 | 7.54182 | 1405 ft | 126 kts | 14° |
| 2026-05-08 21:53 | 51.78205 | 7.54516 | 1406 ft | 126 kts | 13° |
| 2026-05-08 21:53 | 51.79055 | 7.54848 | 1407 ft | 126 kts | 13° |
| 2026-05-08 21:53 | 51.79908 | 7.55183 | 1408 ft | 126 kts | 14° |
| 2026-05-08 21:53 | 51.80762 | 7.55519 | 1409 ft | 127 kts | 14° |
| 2026-05-08 21:54 | 51.81620 | 7.55854 | 1409 ft | 125 kts | 13° |
| 2026-05-08 21:54 | 51.82459 | 7.56181 | 1411 ft | 124 kts | 13° |
| 2026-05-08 21:54 | 51.83304 | 7.56512 | 1411 ft | 124 kts | 12° |
| 2026-05-08 21:54 | 51.84139 | 7.56841 | 1412 ft | 123 kts | 12° |
| 2026-05-08 21:55 | 51.84970 | 7.57168 | 1413 ft | 123 kts | 12° |
| 2026-05-08 21:55 | 51.85801 | 7.57494 | 1415 ft | 123 kts | 13° |
| 2026-05-08 21:55 | 51.86628 | 7.57821 | 1416 ft | 124 kts | 13° |
| 2026-05-08 21:56 | 51.88294 | 7.58478 | 1417 ft | 123 kts | 13° |
| 2026-05-08 21:56 | 51.89137 | 7.58809 | 1418 ft | 123 kts | 13° |
| 2026-05-08 21:56 | 51.89971 | 7.59149 | 1420 ft | 124 kts | 14° |
| 2026-05-08 21:56 | 51.90797 | 7.59489 | 1420 ft | 124 kts | 14° |
| 2026-05-08 21:57 | 51.91639 | 7.59830 | 1421 ft | 124 kts | 12° |
| 2026-05-08 21:57 | 51.92474 | 7.60154 | 1421 ft | 124 kts | 12° |
| 2026-05-08 21:57 | 51.93311 | 7.60475 | 1423 ft | 123 kts | 13° |
| 2026-05-08 21:57 | 51.94147 | 7.60794 | 1421 ft | 124 kts | 11° |
| 2026-05-08 21:58 | 51.94982 | 7.61109 | 1422 ft | 123 kts | 11° |
| 2026-05-08 21:58 | 51.95817 | 7.61426 | 1422 ft | 123 kts | 12° |
| 2026-05-08 21:58 | 51.96648 | 7.61749 | 1423 ft | 123 kts | 12° |
| 2026-05-08 21:58 | 51.97486 | 7.62076 | 1424 ft | 123 kts | 12° |
| 2026-05-08 21:59 | 51.98316 | 7.62402 | 1423 ft | 123 kts | 11° |
| 2026-05-08 21:59 | 51.99146 | 7.62727 | 1424 ft | 123 kts | 12° |
| 2026-05-08 21:59 | 51.99975 | 7.63053 | 1425 ft | 123 kts | 12° |
| 2026-05-08 21:59 | 52.00809 | 7.63383 | 1424 ft | 123 kts | 11° |
| 2026-05-08 22:00 | 52.01637 | 7.63708 | 1425 ft | 123 kts | 12° |
| 2026-05-08 22:00 | 52.02469 | 7.64038 | 1424 ft | 123 kts | 12° |
| 2026-05-08 22:00 | 52.03300 | 7.64367 | 1424 ft | 123 kts | 12° |
| 2026-05-08 22:00 | 52.04140 | 7.64700 | 1424 ft | 123 kts | 11° |
| 2026-05-08 22:01 | 52.04962 | 7.65019 | 1414 ft | 120 kts | 9° |
| 2026-05-08 22:01 | 52.05779 | 7.65325 | 1322 ft | 123 kts | 12° |
| 2026-05-08 22:01 | 52.06618 | 7.65667 | 1218 ft | 125 kts | 14° |
| 2026-05-08 22:01 | 52.07466 | 7.66014 | 1113 ft | 126 kts | 13° |
| 2026-05-08 22:02 | 52.08308 | 7.66343 | 994 ft | 123 kts | 11° |
| 2026-05-08 22:02 | 52.09140 | 7.66657 | 902 ft | 121 kts | 18° |
| 2026-05-08 22:02 | 52.09944 | 7.67053 | 857 ft | 118 kts | 19° |
| 2026-05-08 22:02 | 52.10696 | 7.67414 | 858 ft | 109 kts | 12° |
| 2026-05-08 22:03 | 52.11396 | 7.67691 | 706 ft | 96 kts | 18° |
| 2026-05-08 22:03 | 52.11856 | 7.68160 | 620 ft | 61 kts | 45° |
| 2026-05-08 22:03 | 52.12086 | 7.68587 | 495 ft | 40 kts | 41° |
| 2026-05-08 22:03 | 52.12230 | 7.68869 | 335 ft | 26 kts | 43° |
| 2026-05-08 22:04 | 52.12329 | 7.69036 | 202 ft | 13 kts | 346° |
| 2026-05-08 22:04 | 52.12362 | 7.69015 | 164 ft | 1 kts | 249° |
| 2026-05-08 22:04 | 52.12359 | 7.69014 | 159 ft | 0 kts | 251° |
| 2026-05-08 22:04 | 52.12360 | 7.69012 | 160 ft | 0 kts | 248° |
| 2026-05-09 00:29 | 52.12336 | 7.69021 | 172 ft | 10 kts | 122° |
| 2026-05-09 00:29 | 52.12289 | 7.68992 | 279 ft | 8 kts | 40° |
| 2026-05-09 00:30 | 52.12382 | 7.69174 | 388 ft | 57 kts | 45° |
| 2026-05-09 00:30 | 52.12436 | 7.70037 | 545 ft | 93 kts | 96° |
| 2026-05-09 00:30 | 52.11973 | 7.70818 | 721 ft | 109 kts | 162° |
| 2026-05-09 00:30 | 52.11232 | 7.70454 | 830 ft | 122 kts | 214° |
| 2026-05-09 00:31 | 52.10589 | 7.69484 | 977 ft | 125 kts | 227° |
| 2026-05-09 00:31 | 52.10001 | 7.68475 | 1130 ft | 121 kts | 212° |
| 2026-05-09 00:31 | 52.09339 | 7.67652 | 1205 ft | 120 kts | 206° |
| 2026-05-09 00:31 | 52.08633 | 7.66841 | 1209 ft | 129 kts | 208° |
| 2026-05-09 00:32 | 52.07896 | 7.65960 | 1204 ft | 133 kts | 210° |
| 2026-05-09 00:32 | 52.07173 | 7.65019 | 1181 ft | 136 kts | 216° |
| 2026-05-09 00:32 | 52.06546 | 7.64048 | 1207 ft | 134 kts | 216° |
| 2026-05-09 00:32 | 52.05989 | 7.63192 | 1209 ft | 134 kts | 216° |
| 2026-05-09 00:33 | 52.05315 | 7.62155 | 1209 ft | 135 kts | 216° |
| 2026-05-09 00:33 | 52.04636 | 7.61111 | 1209 ft | 135 kts | 216° |
| 2026-05-09 00:33 | 52.03948 | 7.60055 | 1209 ft | 135 kts | 216° |
| 2026-05-09 00:33 | 52.03268 | 7.59012 | 1209 ft | 135 kts | 216° |
| 2026-05-09 00:34 | 52.02582 | 7.57958 | 1209 ft | 135 kts | 216° |
| 2026-05-09 00:34 | 52.01905 | 7.56919 | 1209 ft | 135 kts | 216° |
| 2026-05-09 00:34 | 52.01221 | 7.55871 | 1209 ft | 135 kts | 216° |
| 2026-05-09 00:34 | 52.00534 | 7.54817 | 1209 ft | 135 kts | 216° |
| 2026-05-09 00:35 | 51.99854 | 7.53775 | 1208 ft | 135 kts | 216° |
| 2026-05-09 00:35 | 51.99169 | 7.52726 | 1208 ft | 135 kts | 216° |
| 2026-05-09 00:35 | 51.98492 | 7.51688 | 1207 ft | 135 kts | 216° |
| 2026-05-09 00:35 | 51.97811 | 7.50642 | 1206 ft | 135 kts | 216° |
| 2026-05-09 00:36 | 51.97129 | 7.49592 | 1206 ft | 135 kts | 216° |
| 2026-05-09 00:36 | 51.96449 | 7.48547 | 1205 ft | 135 kts | 216° |
| 2026-05-09 00:36 | 51.95766 | 7.47498 | 1203 ft | 135 kts | 216° |
| 2026-05-09 00:36 | 51.95086 | 7.46448 | 1200 ft | 135 kts | 216° |
| 2026-05-09 00:37 | 51.94405 | 7.45400 | 1201 ft | 135 kts | 216° |
| 2026-05-09 00:37 | 51.93725 | 7.44337 | 1199 ft | 135 kts | 216° |
| 2026-05-09 00:37 | 51.93047 | 7.43289 | 1201 ft | 135 kts | 216° |
| 2026-05-09 00:37 | 51.92368 | 7.42256 | 1192 ft | 135 kts | 216° |
| 2026-05-09 00:38 | 51.91684 | 7.41207 | 1197 ft | 135 kts | 218° |
| 2026-05-09 00:38 | 51.90986 | 7.40176 | 1209 ft | 137 kts | 217° |
| 2026-05-09 00:38 | 51.90267 | 7.39142 | 1209 ft | 139 kts | 218° |
| 2026-05-09 00:38 | 51.89552 | 7.38098 | 1206 ft | 139 kts | 217° |
| 2026-05-09 00:39 | 51.88827 | 7.37048 | 1207 ft | 140 kts | 217° |
| 2026-05-09 00:39 | 51.88096 | 7.36015 | 1203 ft | 140 kts | 216° |
| 2026-05-09 00:39 | 51.87373 | 7.34969 | 1203 ft | 140 kts | 217° |
| 2026-05-09 00:39 | 51.86634 | 7.33909 | 1199 ft | 140 kts | 217° |
| 2026-05-09 00:40 | 51.85914 | 7.32852 | 1200 ft | 139 kts | 217° |
| 2026-05-09 00:40 | 51.85199 | 7.31800 | 1201 ft | 138 kts | 217° |
| 2026-05-09 00:40 | 51.84473 | 7.30778 | 1200 ft | 140 kts | 217° |
| 2026-05-09 00:41 | 51.83005 | 7.28684 | 1190 ft | 139 kts | 217° |
| 2026-05-09 00:41 | 51.82272 | 7.27656 | 1199 ft | 140 kts | 217° |
| 2026-05-09 00:41 | 51.81536 | 7.26636 | 1199 ft | 141 kts | 217° |
| 2026-05-09 00:41 | 51.80788 | 7.25620 | 1200 ft | 141 kts | 217° |
| 2026-05-09 00:42 | 51.80023 | 7.24608 | 1199 ft | 140 kts | 215° |
| 2026-05-09 00:42 | 51.79271 | 7.23622 | 1202 ft | 140 kts | 215° |
| 2026-05-09 00:42 | 51.78516 | 7.22629 | 1202 ft | 138 kts | 215° |
| 2026-05-09 00:42 | 51.77784 | 7.21655 | 1177 ft | 136 kts | 214° |
| 2026-05-09 00:43 | 51.77093 | 7.20738 | 1127 ft | 126 kts | 215° |
| 2026-05-09 00:43 | 51.76400 | 7.19846 | 1046 ft | 128 kts | 218° |
| 2026-05-09 00:43 | 51.75807 | 7.18790 | 1011 ft | 126 kts | 231° |
| 2026-05-09 00:43 | 51.75354 | 7.17639 | 949 ft | 116 kts | 233° |
| 2026-05-09 00:44 | 51.74920 | 7.16599 | 790 ft | 111 kts | 231° |
| 2026-05-09 00:44 | 51.74750 | 7.15424 | 605 ft | 112 kts | 265° |
| 2026-05-09 00:44 | 51.74380 | 7.14759 | 571 ft | 78 kts | 132° |
| 2026-05-09 00:44 | 51.74309 | 7.15455 | 537 ft | 57 kts | 58° |
| 2026-05-09 00:45 | 51.74517 | 7.15890 | 489 ft | 43 kts | 33° |
| 2026-05-09 00:45 | 51.74719 | 7.16151 | 426 ft | 28 kts | 34° |
| 2026-05-09 00:45 | 51.74827 | 7.16262 | 291 ft | 6 kts | 50° |
| 2026-05-09 00:45 | 51.74844 | 7.16281 | 231 ft | 0 kts | 37° |
| 2026-05-09 00:46 | 51.74847 | 7.16281 | 228 ft | 0 kts | 35° |
| 2026-05-09 01:00 | 51.74857 | 7.16298 | 290 ft | 21 kts | 29° |
| 2026-05-09 01:00 | 51.75194 | 7.16665 | 472 ft | 84 kts | 35° |
| 2026-05-09 01:00 | 51.75625 | 7.17465 | 758 ft | 104 kts | 47° |
| 2026-05-09 01:00 | 51.76089 | 7.18444 | 998 ft | 116 kts | 47° |
| 2026-05-09 01:01 | 51.76586 | 7.19546 | 1100 ft | 124 kts | 50° |
| 2026-05-09 01:01 | 51.77060 | 7.20669 | 1241 ft | 119 kts | 49° |
| 2026-05-09 01:01 | 51.77562 | 7.21780 | 1286 ft | 124 kts | 49° |
| 2026-05-09 01:01 | 51.78080 | 7.22924 | 1292 ft | 127 kts | 49° |
| 2026-05-09 01:02 | 51.78608 | 7.24088 | 1294 ft | 129 kts | 49° |
| 2026-05-09 01:02 | 51.79136 | 7.25252 | 1295 ft | 129 kts | 47° |
| 2026-05-09 01:02 | 51.79649 | 7.26460 | 1279 ft | 127 kts | 47° |
| 2026-05-09 01:02 | 51.80137 | 7.27640 | 1279 ft | 126 kts | 47° |
| 2026-05-09 01:03 | 51.80621 | 7.28814 | 1279 ft | 126 kts | 47° |
| 2026-05-09 01:03 | 51.81105 | 7.29986 | 1279 ft | 126 kts | 47° |
| 2026-05-09 01:03 | 51.81589 | 7.31160 | 1279 ft | 125 kts | 47° |
| 2026-05-09 01:03 | 51.82108 | 7.32292 | 1280 ft | 126 kts | 44° |
| 2026-05-09 01:04 | 51.82633 | 7.33430 | 1279 ft | 125 kts | 44° |
| 2026-05-09 01:04 | 51.83153 | 7.34559 | 1279 ft | 125 kts | 44° |
| 2026-05-09 01:04 | 51.83676 | 7.35694 | 1279 ft | 125 kts | 44° |
| 2026-05-09 01:04 | 51.84202 | 7.36835 | 1279 ft | 125 kts | 44° |
| 2026-05-09 01:05 | 51.84722 | 7.37964 | 1280 ft | 125 kts | 44° |
| 2026-05-09 01:05 | 51.85239 | 7.39089 | 1280 ft | 125 kts | 44° |
| 2026-05-09 01:05 | 51.86282 | 7.41361 | 1282 ft | 125 kts | 44° |
| 2026-05-09 01:06 | 51.86800 | 7.42489 | 1283 ft | 125 kts | 44° |
| 2026-05-09 01:06 | 51.87317 | 7.43619 | 1284 ft | 125 kts | 44° |
| 2026-05-09 01:06 | 51.87857 | 7.44716 | 1288 ft | 125 kts | 41° |
| 2026-05-09 01:06 | 51.88409 | 7.45800 | 1287 ft | 125 kts | 41° |
| 2026-05-09 01:07 | 51.88963 | 7.46887 | 1288 ft | 124 kts | 41° |
| 2026-05-09 01:07 | 51.89506 | 7.47955 | 1290 ft | 124 kts | 41° |
| 2026-05-09 01:07 | 51.90060 | 7.49035 | 1292 ft | 123 kts | 41° |
| 2026-05-09 01:07 | 51.90604 | 7.50095 | 1293 ft | 123 kts | 41° |
| 2026-05-09 01:08 | 51.91165 | 7.51162 | 1310 ft | 124 kts | 43° |
| 2026-05-09 01:08 | 51.91756 | 7.52212 | 1204 ft | 128 kts | 43° |
| 2026-05-09 01:08 | 51.92348 | 7.53235 | 1114 ft | 119 kts | 42° |
| 2026-05-09 01:08 | 51.92889 | 7.54158 | 1090 ft | 110 kts | 45° |
| 2026-05-09 01:09 | 51.93402 | 7.55126 | 1000 ft | 119 kts | 49° |
| 2026-05-09 01:09 | 51.93922 | 7.56231 | 902 ft | 121 kts | 51° |
| 2026-05-09 01:09 | 51.94424 | 7.57243 | 888 ft | 108 kts | 41° |
| 2026-05-09 01:09 | 51.94981 | 7.57934 | 896 ft | 90 kts | 26° |
| 2026-05-09 01:10 | 51.95459 | 7.58390 | 810 ft | 70 kts | 26° |
| 2026-05-09 01:10 | 51.95812 | 7.58680 | 625 ft | 46 kts | 28° |
| 2026-05-09 01:10 | 51.96024 | 7.58890 | 370 ft | 21 kts | 63° |
| 2026-05-09 01:10 | 51.96053 | 7.59007 | 239 ft | 4 kts | 71° |
| 2026-05-09 01:11 | 51.96055 | 7.59029 | 202 ft | 0 kts | 69° |
| 2026-05-09 01:11 | 51.96055 | 7.59031 | 200 ft | 0 kts | 65° |
| 2026-05-09 01:14 | 51.96054 | 7.59026 | 241 ft | 7 kts | 66° |
| 2026-05-09 01:14 | 51.96019 | 7.58934 | 496 ft | 16 kts | 65° |
| 2026-05-09 01:14 | 51.96127 | 7.59237 | 644 ft | 72 kts | 28° |
| 2026-05-09 01:14 | 51.96743 | 7.59496 | 752 ft | 108 kts | 9° |
| 2026-05-09 01:15 | 51.97504 | 7.59703 | 954 ft | 114 kts | 4° |
| 2026-05-09 01:15 | 51.98320 | 7.59907 | 1020 ft | 125 kts | 8° |
| 2026-05-09 01:15 | 51.99188 | 7.60315 | 986 ft | 129 kts | 14° |
| 2026-05-09 01:15 | 52.00034 | 7.60817 | 991 ft | 130 kts | 17° |
| 2026-05-09 01:16 | 52.00884 | 7.61341 | 994 ft | 131 kts | 17° |
| 2026-05-09 01:16 | 52.01736 | 7.61847 | 995 ft | 132 kts | 16° |
| 2026-05-09 01:16 | 52.02601 | 7.62344 | 995 ft | 132 kts | 15° |
| 2026-05-09 01:17 | 52.04330 | 7.63254 | 991 ft | 129 kts | 13° |
| 2026-05-09 01:17 | 52.05191 | 7.63707 | 990 ft | 129 kts | 13° |
| 2026-05-09 01:17 | 52.06038 | 7.64164 | 990 ft | 129 kts | 13° |
| 2026-05-09 01:17 | 52.06900 | 7.64622 | 988 ft | 129 kts | 12° |
| 2026-05-09 01:18 | 52.07745 | 7.65062 | 987 ft | 129 kts | 13° |
| 2026-05-09 01:18 | 52.08607 | 7.65519 | 986 ft | 128 kts | 13° |
| 2026-05-09 01:18 | 52.09450 | 7.65974 | 986 ft | 128 kts | 14° |
| 2026-05-09 01:18 | 52.10297 | 7.66324 | 884 ft | 120 kts | 7° |
| 2026-05-09 01:19 | 52.11055 | 7.66602 | 782 ft | 101 kts | 20° |
| 2026-05-09 01:19 | 52.11572 | 7.67158 | 684 ft | 83 kts | 38° |
| 2026-05-09 01:19 | 52.11908 | 7.67878 | 620 ft | 74 kts | 51° |
| 2026-05-09 01:19 | 52.12110 | 7.68463 | 461 ft | 46 kts | 51° |
| 2026-05-09 01:20 | 52.12242 | 7.68851 | 334 ft | 32 kts | 48° |
| 2026-05-09 01:20 | 52.12336 | 7.69046 | 188 ft | 10 kts | 316° |
| 2026-05-09 01:20 | 52.12361 | 7.69014 | 161 ft | 1 kts | 249° |
| 2026-05-09 01:20 | 52.12360 | 7.69014 | 160 ft | 0 kts | 250° |